Aérodrome :
LOGIN :

S'inscrire | Disclaimer

   EN    FR    IT 

 










Légende :    VFR   VFR Marginal   IFR   IFR Intensif   IFR Très Intensif
Visi : 
Plafond : 
>= 8 km
>= 3000ft
5 à 8 km
1000 à 3000 ft
1500m à 5 km
500 à 1000 ft
800 à 1500m
200 à 500 ft
< 800m
< 200 ft
Symboles :   Orages  Brouillard  Fortes neiges  Fortes précipitations  Vent > 20 kt
SIGMETs :   Divers  Orages  Givrage  Turbulence  Onde Orograph.  Cendres Volcan.







- Altitude de l'aérodrome : 375 ft
- Code IATA : MST


EHBK - Maastricht Aachen

DERNIER METAR :
  • 242055Z AUTO 31005KT 9999 NCD 06/00 Q1025 NOSIG

METARs EXPIRÉS :
  • 242025Z AUTO 31006KT 270V340 9999 NCD 06/00 Q1026 NOSIG
  • 241955Z AUTO 31006KT 270V340 9999 NCD 07/01 Q1025 NOSIG
  • 241925Z AUTO 31006KT 280V350 9999 NCD 07/00 Q1025 NOSIG
  • 241855Z AUTO 31006KT 280V350 9999 NCD 08/M00 Q1025 NOSIG
  • 241825Z AUTO 31005KT 280V340 9999 NCD 08/M01 Q1025 NOSIG

TAF TAF EHBK
Valide du 24 à 18h jusqu'au 26 à 00h UTC


241700Z 2418/2524 27005KT CAVOK
BECMG 2504/2507 32012KT BKN030
TEMPO 2504/2506 6000 RA SHRA SCT020TCU BKN025
BECMG 2508/2511 32015G25KT
TEMPO 2509/2514 33020G30KT 6000 SHRA SCT025CB BKN030
PROB30
TEMPO 2514/2518 7000 -SHRA FEW025TCU BKN030
BECMG 2516/2519 33008KT
Pas de NOTAMs connus pour ce terrain.



MET'MAP, la Météo Aéronautique d'un coup d'oeil ! - Copyright ORBIFLY Décembre 2007 - Disclaimer

ORBIFLY MET'MAP TEAM :

Programmation & Développement : Alexandra Zaïnal
Conception & Développement : Baudouin d'Aumeries
Co-Programmation & Développement : Marc-Olivier Méhu
Soutien technique & logistique : Manuel Goepfert

Contact : metmap@orbifly.com




SOURCES & CREDITS :

   NOAA